Terminal Aerodrome Forecast
Issued by NWS

Home | Current Version | Previous Version | Text Only | Print | Product List | Glossary On
Versions: 1 2 3 4 5 6 7 8 9 10 11 12 13 14
000
FTPA31 PHFO 202326
TAFHMK
TAF
PHMK 202326Z 2100/2124 04014G22KT P6SM SCT020 BKN040
     FM210400 04010G18KT P6SM FEW020 SCT040 BKN250
     FM212000 04014G22KT P6SM SCT025 SCT050 SCT250=

USA.gov is the U.S. government's official web portal to all federal, state and local government web resources and services.